createdAt,value
2023-03-26T00:01:40.787Z,16.10
2023-03-26T00:04:08.603Z,20.25
2023-03-26T00:06:39.592Z,19.60
2023-03-26T00:09:09.961Z,18.63
2023-03-26T00:11:37.576Z,18.15
2023-03-26T00:14:05.727Z,18.08
2023-03-26T00:16:33.935Z,18.83
2023-03-26T00:19:02.614Z,18.50
2023-03-26T00:21:31.272Z,17.92
2023-03-26T00:24:05.003Z,17.60
2023-03-26T00:26:37.727Z,17.02
2023-03-26T00:29:06.864Z,16.30
2023-03-26T00:31:35.730Z,16.92
2023-03-26T00:34:05.608Z,20.95
2023-03-26T00:36:35.969Z,18.85
2023-03-26T00:39:06.287Z,18.70
2023-03-26T00:41:43.081Z,17.95
2023-03-26T00:44:11.479Z,16.75
2023-03-26T00:46:39.186Z,18.13
2023-03-26T00:49:10.966Z,17.30
2023-03-26T00:51:39.373Z,19.30
2023-03-26T00:54:08.222Z,19.23
2023-03-26T00:59:03.723Z,20.00
2023-03-26T01:01:32.403Z,20.83
2023-03-26T01:04:20.361Z,18.88
2023-03-26T01:06:48.016Z,18.27
2023-03-26T01:09:19.656Z,19.20
2023-03-26T01:11:48.804Z,18.05
2023-03-26T01:14:26.928Z,19.25
2023-03-26T01:17:00.452Z,19.67
2023-03-26T01:19:38.357Z,22.50
2023-03-26T01:22:11.232Z,21.70
2023-03-26T01:24:42.375Z,19.40
2023-03-26T01:27:20.959Z,20.92
2023-03-26T01:30:11.201Z,21.10
2023-03-26T01:32:57.980Z,22.10
2023-03-26T01:35:45.928Z,21.20
2023-03-26T01:39:00.538Z,22.40
2023-03-26T01:41:41.911Z,23.30
2023-03-26T01:44:30.794Z,21.17
2023-03-26T01:47:00.184Z,21.58
2023-03-26T01:49:29.177Z,21.02
2023-03-26T01:51:58.454Z,22.05
2023-03-26T01:54:31.538Z,21.50
2023-03-26T01:57:32.883Z,23.17
2023-03-26T02:00:18.989Z,25.10
2023-03-26T02:02:54.916Z,23.88
2023-03-26T02:05:42.593Z,21.65
2023-03-26T02:08:35.217Z,22.35
2023-03-26T02:11:13.140Z,22.65
2023-03-26T02:13:43.863Z,22.45
2023-03-26T02:16:14.524Z,22.23
2023-03-26T02:18:47.567Z,22.80
2023-03-26T02:21:20.455Z,22.48
2023-03-26T02:23:58.091Z,21.67
2023-03-26T02:26:25.896Z,22.60
2023-03-26T02:31:37.884Z,22.73
2023-03-26T02:34:05.786Z,25.50
2023-03-26T02:36:36.242Z,25.85
2023-03-26T02:39:05.411Z,25.15
2023-03-26T02:41:38.499Z,24.60
2023-03-26T02:44:11.420Z,24.27
2023-03-26T02:47:05.131Z,23.67
2023-03-26T02:49:50.985Z,23.67
2023-03-26T02:52:31.292Z,22.50
2023-03-26T02:54:59.983Z,22.42
2023-03-26T02:57:27.843Z,22.38
2023-03-26T03:00:14.132Z,23.23
2023-03-26T03:02:52.758Z,27.52
2023-03-26T03:05:33.313Z,24.70
2023-03-26T03:08:20.820Z,25.27
2023-03-26T03:11:17.999Z,24.75
2023-03-26T03:13:49.684Z,26.65
2023-03-26T03:16:21.084Z,27.27
2023-03-26T03:18:57.783Z,25.63
2023-03-26T03:21:30.766Z,24.70
2023-03-26T03:24:00.261Z,26.30
2023-03-26T03:26:30.610Z,24.83
2023-03-26T03:29:03.303Z,25.05
2023-03-26T03:31:31.178Z,24.15
2023-03-26T03:34:03.758Z,24.65
2023-03-26T03:36:38.571Z,24.40
2023-03-26T03:39:25.080Z,25.27
2023-03-26T03:41:52.621Z,25.30
2023-03-26T03:44:20.592Z,23.05
2023-03-26T03:46:53.953Z,23.45
2023-03-26T03:49:22.952Z,24.92
2023-03-26T03:51:50.458Z,25.85
2023-03-26T03:54:30.488Z,26.00
2023-03-26T03:57:22.015Z,24.38
2023-03-26T04:00:03.512Z,25.42
2023-03-26T04:02:43.169Z,25.58
2023-03-26T04:05:12.064Z,23.63
2023-03-26T04:07:45.941Z,25.52
2023-03-26T04:10:33.424Z,24.60
2023-03-26T04:13:14.503Z,24.45
2023-03-26T04:16:21.150Z,24.67
2023-03-26T04:18:49.857Z,24.30
2023-03-26T04:21:19.287Z,25.80
2023-03-26T04:23:47.272Z,24.52
2023-03-26T04:26:37.849Z,24.88
2023-03-26T04:29:18.279Z,24.67
2023-03-26T04:31:47.201Z,26.50
2023-03-26T04:34:26.629Z,27.50
2023-03-26T04:37:21.101Z,26.27
2023-03-26T04:40:00.515Z,25.00
2023-03-26T04:42:50.255Z,23.90
2023-03-26T04:45:30.353Z,23.85
2023-03-26T04:47:58.969Z,24.10
2023-03-26T04:50:27.005Z,25.50
2023-03-26T04:52:56.763Z,24.92
2023-03-26T04:56:44.667Z,23.80
2023-03-26T04:59:38.321Z,26.35
2023-03-26T05:02:10.672Z,27.17
2023-03-26T05:04:47.075Z,24.92
2023-03-26T05:07:20.663Z,27.30
2023-03-26T05:09:51.295Z,29.83
2023-03-26T05:12:35.739Z,28.15
2023-03-26T05:15:11.582Z,26.27
2023-03-26T05:17:51.482Z,25.63
2023-03-26T05:20:31.217Z,24.15
2023-03-26T05:22:59.072Z,23.48
2023-03-26T05:25:30.121Z,22.15
2023-03-26T05:27:58.986Z,21.33
2023-03-26T05:30:32.691Z,21.00
2023-03-26T05:33:02.810Z,21.55
2023-03-26T05:35:36.774Z,18.48
2023-03-26T05:38:05.173Z,18.90
2023-03-26T05:40:32.588Z,20.25
2023-03-26T05:43:02.904Z,18.70
2023-03-26T05:45:39.271Z,19.40
2023-03-26T05:48:25.461Z,20.70
2023-03-26T05:50:55.991Z,19.45
2023-03-26T05:53:26.479Z,18.80
2023-03-26T05:56:12.677Z,18.80
2023-03-26T05:58:58.798Z,18.73
2023-03-26T06:01:29.371Z,18.58
2023-03-26T06:04:19.887Z,20.52
2023-03-26T06:07:05.330Z,18.95
2023-03-26T06:09:33.072Z,17.65
2023-03-26T06:12:00.770Z,22.77
2023-03-26T06:14:31.287Z,24.27
2023-03-26T06:17:14.417Z,22.92
2023-03-26T06:20:11.611Z,21.83
2023-03-26T06:22:42.375Z,22.25
2023-03-26T06:25:37.357Z,22.83
2023-03-26T06:28:21.260Z,20.73
2023-03-26T06:31:06.147Z,20.38
2023-03-26T06:33:43.660Z,21.65
2023-03-26T06:36:13.565Z,19.70
2023-03-26T06:38:41.436Z,18.48
2023-03-26T06:41:09.961Z,16.65
2023-03-26T06:43:50.441Z,16.75
2023-03-26T06:46:40.925Z,18.40
2023-03-26T06:49:26.556Z,16.92
2023-03-26T06:52:23.101Z,17.10
2023-03-26T06:55:03.154Z,16.90
2023-03-26T06:57:56.887Z,16.80
2023-03-26T07:00:43.021Z,16.73
2023-03-26T07:03:29.610Z,18.35
2023-03-26T07:06:15.748Z,18.63
2023-03-26T07:09:02.718Z,18.13
2023-03-26T07:11:48.309Z,18.88
2023-03-26T07:14:45.027Z,19.52
2023-03-26T07:17:51.437Z,18.83
2023-03-26T07:20:24.867Z,17.52
2023-03-26T07:22:53.328Z,18.00
2023-03-26T07:25:39.975Z,16.58
2023-03-26T07:28:41.208Z,17.05
2023-03-26T07:31:48.075Z,16.00
2023-03-26T07:35:06.314Z,14.10
2023-03-26T07:38:23.182Z,14.73
2023-03-26T07:41:14.627Z,12.05
2023-03-26T07:44:28.029Z,10.65
2023-03-26T07:47:32.574Z,10.25
2023-03-26T07:50:25.492Z,10.48
2023-03-26T07:53:09.040Z,9.38
2023-03-26T07:56:12.322Z,9.38
2023-03-26T07:59:34.596Z,8.27
2023-03-26T08:05:19.843Z,8.45
2023-03-26T08:08:33.975Z,10.15
2023-03-26T08:11:53.561Z,8.25
2023-03-26T08:14:21.848Z,10.45
2023-03-26T08:17:08.009Z,8.70
2023-03-26T08:19:40.910Z,8.50
2023-03-26T08:22:31.244Z,10.25
2023-03-26T08:25:05.258Z,9.18
2023-03-26T08:27:40.304Z,8.48
2023-03-26T08:30:16.916Z,9.48
2023-03-26T08:32:55.636Z,7.97
2023-03-26T08:35:24.729Z,8.85
2023-03-26T08:37:52.277Z,7.90
2023-03-26T08:40:45.468Z,8.23
2023-03-26T08:43:45.939Z,9.07
2023-03-26T08:46:26.790Z,8.75
2023-03-26T08:49:18.238Z,14.07
2023-03-26T08:52:10.344Z,8.00
2023-03-26T08:55:06.190Z,6.47
2023-03-26T08:57:54.537Z,5.18
2023-03-26T09:00:53.297Z,3.50
2023-03-26T09:03:47.842Z,3.17
2023-03-26T09:06:47.214Z,3.75
2023-03-26T09:09:38.675Z,3.38
2023-03-26T09:12:32.411Z,3.08
2023-03-26T09:15:18.550Z,2.45
2023-03-26T09:18:01.161Z,2.70
2023-03-26T09:20:56.997Z,3.22
2023-03-26T09:24:09.593Z,3.30
2023-03-26T09:26:48.105Z,4.35
2023-03-26T09:29:39.246Z,3.63
2023-03-26T09:32:09.839Z,4.30
2023-03-26T09:35:00.581Z,4.22
2023-03-26T09:38:06.424Z,4.05
2023-03-26T09:40:38.728Z,4.30
2023-03-26T09:46:05.038Z,4.07
2023-03-26T09:48:55.555Z,3.75
2023-03-26T09:51:40.713Z,3.67
2023-03-26T09:54:44.658Z,3.83
2023-03-26T09:57:27.060Z,5.05
2023-03-26T10:00:07.170Z,3.90
2023-03-26T10:02:58.186Z,4.18
2023-03-26T10:05:48.422Z,4.57
2023-03-26T10:08:34.706Z,3.95
2023-03-26T10:11:13.065Z,4.82
2023-03-26T10:13:43.462Z,4.72
2023-03-26T10:16:20.193Z,5.13
2023-03-26T10:18:59.125Z,4.70
2023-03-26T10:21:54.768Z,4.22
2023-03-26T10:24:58.837Z,4.13
2023-03-26T10:27:52.138Z,3.95
2023-03-26T10:30:37.770Z,4.10
2023-03-26T10:33:15.000Z,3.60
2023-03-26T10:35:51.483Z,4.07
2023-03-26T10:38:52.454Z,4.47
2023-03-26T10:41:51.206Z,5.60
2023-03-26T10:44:43.396Z,6.35
2023-03-26T10:47:22.592Z,5.55
2023-03-26T10:50:08.887Z,5.80
2023-03-26T10:52:52.628Z,5.45
2023-03-26T10:55:25.764Z,6.10
2023-03-26T10:58:20.598Z,7.70
2023-03-26T11:01:06.397Z,6.15
2023-03-26T11:03:54.396Z,7.65
2023-03-26T11:06:43.163Z,7.00
2023-03-26T11:09:29.732Z,5.75
2023-03-26T11:12:34.651Z,7.10
2023-03-26T11:15:20.481Z,7.07
2023-03-26T11:18:32.055Z,7.10
2023-03-26T11:21:20.657Z,6.70
2023-03-26T11:24:09.184Z,5.85
2023-03-26T11:26:42.894Z,5.50
2023-03-26T11:29:33.603Z,5.18
2023-03-26T11:32:14.550Z,4.82
2023-03-26T11:35:16.849Z,4.90
2023-03-26T11:37:48.300Z,5.15
2023-03-26T11:40:24.493Z,5.00
2023-03-26T11:42:57.932Z,4.38
2023-03-26T11:45:31.051Z,5.25
2023-03-26T11:48:10.714Z,4.32
2023-03-26T11:50:52.797Z,5.05
2023-03-26T11:53:25.140Z,4.25
2023-03-26T11:56:08.189Z,5.35
2023-03-26T11:58:50.148Z,4.85
2023-03-26T12:01:32.732Z,4.57
2023-03-26T12:06:33.018Z,4.28
2023-03-26T12:09:00.829Z,4.25
2023-03-26T12:11:33.877Z,4.97
2023-03-26T12:14:05.180Z,5.13
2023-03-26T12:16:34.938Z,4.22
2023-03-26T12:19:22.264Z,4.30
2023-03-26T12:21:51.812Z,4.35
2023-03-26T12:24:31.896Z,4.32
2023-03-26T12:27:22.081Z,3.80
2023-03-26T12:30:00.063Z,4.00
2023-03-26T12:35:07.506Z,4.10
2023-03-26T12:37:38.853Z,4.28
2023-03-26T12:40:27.529Z,3.65
2023-03-26T12:44:49.338Z,3.30
2023-03-26T12:46:03.695Z,3.85
2023-03-26T12:48:41.604Z,4.22
2023-03-26T12:51:12.495Z,3.92
2023-03-26T12:54:19.820Z,3.75
2023-03-26T12:57:13.366Z,3.58
2023-03-26T13:00:05.742Z,3.42
2023-03-26T13:02:59.099Z,3.53
2023-03-26T13:06:01.916Z,3.60
2023-03-26T13:08:41.183Z,4.07
2023-03-26T13:11:26.624Z,4.25
2023-03-26T13:14:26.038Z,4.15
2023-03-26T13:17:18.999Z,3.58
2023-03-26T13:20:19.074Z,3.88
2023-03-26T13:23:02.660Z,3.70
2023-03-26T13:25:51.790Z,3.30
2023-03-26T13:28:43.329Z,3.55
2023-03-26T13:31:18.474Z,3.72
2023-03-26T13:34:04.168Z,4.43
2023-03-26T13:36:55.739Z,4.78
2023-03-26T13:39:45.695Z,4.30
2023-03-26T13:42:22.223Z,3.85
2023-03-26T13:45:04.607Z,4.45
2023-03-26T13:47:41.429Z,3.90
2023-03-26T13:50:34.062Z,5.30
2023-03-26T13:55:46.150Z,6.00
2023-03-26T13:58:34.386Z,6.10
2023-03-26T14:01:07.990Z,5.45
2023-03-26T14:03:46.997Z,5.72
2023-03-26T14:06:23.606Z,5.68
2023-03-26T14:09:16.861Z,5.35
2023-03-26T14:11:58.175Z,5.45
2023-03-26T14:14:49.020Z,5.57
2023-03-26T14:17:31.207Z,5.28
2023-03-26T14:20:20.248Z,5.38
2023-03-26T14:23:11.524Z,5.80
2023-03-26T14:25:47.616Z,5.90
2023-03-26T14:28:42.778Z,5.78
2023-03-26T14:31:13.682Z,6.15
2023-03-26T14:34:19.669Z,5.88
2023-03-26T14:37:06.346Z,6.25
2023-03-26T14:39:43.248Z,6.53
2023-03-26T14:42:41.062Z,7.28
2023-03-26T14:45:11.575Z,6.32
2023-03-26T14:47:55.420Z,6.95
2023-03-26T14:50:36.027Z,6.75
2023-03-26T14:53:16.148Z,5.28
2023-03-26T14:55:59.862Z,6.03
2023-03-26T14:58:42.477Z,6.75
2023-03-26T15:01:16.046Z,6.70
2023-03-26T15:04:01.383Z,7.93
2023-03-26T15:06:38.102Z,7.47
2023-03-26T15:09:11.504Z,7.72
2023-03-26T15:12:13.684Z,6.60
2023-03-26T15:14:56.221Z,7.93
2023-03-26T15:20:06.599Z,8.48
2023-03-26T15:23:16.126Z,8.27
2023-03-26T15:26:21.943Z,8.00
2023-03-26T15:29:17.242Z,10.00
2023-03-26T15:31:57.747Z,8.75
2023-03-26T15:34:31.130Z,8.32
2023-03-26T15:37:10.849Z,8.88
2023-03-26T15:40:13.397Z,9.75
2023-03-26T15:43:13.045Z,9.25
2023-03-26T15:46:25.252Z,9.15
2023-03-26T15:48:56.346Z,9.02
2023-03-26T15:51:27.959Z,9.10
2023-03-26T15:56:56.818Z,9.07
2023-03-26T15:59:36.948Z,11.85
2023-03-26T16:02:07.637Z,11.02
2023-03-26T16:04:54.166Z,10.45
2023-03-26T16:07:47.952Z,11.25
2023-03-26T16:10:45.130Z,11.73
2023-03-26T16:13:24.229Z,7.70
2023-03-26T16:15:56.991Z,7.35
2023-03-26T16:18:41.063Z,6.78
2023-03-26T16:21:31.390Z,4.80
2023-03-26T16:24:02.888Z,4.85
2023-03-26T16:27:15.343Z,4.55
2023-03-26T16:30:12.464Z,5.53
2023-03-26T16:32:56.308Z,6.20
2023-03-26T16:35:41.594Z,6.43
2023-03-26T16:38:13.528Z,6.20
2023-03-26T16:41:24.651Z,5.80
2023-03-26T16:44:13.933Z,5.88
2023-03-26T16:47:07.492Z,4.70
2023-03-26T16:50:08.382Z,4.35
2023-03-26T16:52:51.937Z,4.77
2023-03-26T16:55:37.567Z,4.15
2023-03-26T16:58:24.279Z,4.97
2023-03-26T17:01:29.643Z,4.22
2023-03-26T17:04:02.544Z,4.20
2023-03-26T17:06:56.596Z,4.50
2023-03-26T17:09:46.591Z,3.47
2023-03-26T17:12:18.677Z,4.47
2023-03-26T17:14:51.800Z,3.53
2023-03-26T17:17:31.456Z,3.90
2023-03-26T17:20:13.955Z,3.08
2023-03-26T17:26:10.392Z,3.28
2023-03-26T17:28:50.535Z,3.88
2023-03-26T17:31:53.074Z,3.70
2023-03-26T17:34:32.558Z,3.72
2023-03-26T17:37:03.241Z,3.50
2023-03-26T17:39:39.820Z,4.03
2023-03-26T17:42:27.129Z,4.60
2023-03-26T17:44:56.938Z,3.80
2023-03-26T17:47:27.700Z,3.55
2023-03-26T17:50:04.703Z,3.10
2023-03-26T17:52:49.633Z,3.58
2023-03-26T17:55:22.862Z,2.53
2023-03-26T17:57:56.072Z,3.00
2023-03-26T18:00:29.180Z,2.60
2023-03-26T18:03:01.367Z,3.30
2023-03-26T18:08:00.129Z,2.88
2023-03-26T18:11:01.520Z,3.00
2023-03-26T18:13:54.806Z,3.10
2023-03-26T18:16:31.291Z,3.58
2023-03-26T18:19:02.289Z,3.53
2023-03-26T18:21:37.118Z,3.58
2023-03-26T18:24:07.743Z,3.42
2023-03-26T18:26:45.409Z,3.97
2023-03-26T18:29:30.779Z,4.30
2023-03-26T18:32:07.387Z,4.50
2023-03-26T18:34:39.474Z,4.18
2023-03-26T18:37:18.249Z,4.30
2023-03-26T18:40:19.153Z,4.95
2023-03-26T18:42:53.825Z,4.45
2023-03-26T18:45:35.282Z,4.10
2023-03-26T18:48:13.808Z,4.07
2023-03-26T18:50:42.234Z,4.20
2023-03-26T18:53:18.256Z,3.97
2023-03-26T18:55:46.053Z,4.57
2023-03-26T18:58:35.077Z,4.93
2023-03-26T19:01:20.276Z,4.78
2023-03-26T19:03:53.808Z,4.68
2023-03-26T19:06:23.331Z,4.97
2023-03-26T19:08:52.663Z,5.15
2023-03-26T19:11:20.279Z,5.78
2023-03-26T19:13:59.743Z,4.95
2023-03-26T19:16:33.779Z,5.13
2023-03-26T19:19:05.418Z,5.05
2023-03-26T19:21:34.449Z,5.30
2023-03-26T19:24:04.284Z,6.93
2023-03-26T19:26:31.896Z,6.03
2023-03-26T19:29:00.847Z,6.25
2023-03-26T19:31:39.971Z,6.90
2023-03-26T19:34:18.890Z,6.97
2023-03-26T19:37:00.962Z,7.03
2023-03-26T19:39:43.496Z,6.43
2023-03-26T19:42:17.600Z,8.60
2023-03-26T19:44:45.442Z,9.63
2023-03-26T19:47:29.057Z,8.63
2023-03-26T19:50:28.970Z,10.13
2023-03-26T19:53:29.926Z,9.98
2023-03-26T19:55:58.924Z,9.18
2023-03-26T19:58:27.296Z,9.60
2023-03-26T20:00:56.410Z,9.98
2023-03-26T20:03:44.445Z,9.93
2023-03-26T20:06:13.249Z,10.00
2023-03-26T20:08:40.874Z,10.40
2023-03-26T20:11:19.429Z,9.55
2023-03-26T20:13:47.506Z,10.15
2023-03-26T20:16:24.442Z,9.80
2023-03-26T20:18:52.010Z,9.60
2023-03-26T20:21:20.915Z,10.25
2023-03-26T20:23:48.421Z,10.27
2023-03-26T20:26:18.534Z,9.77
2023-03-26T20:28:52.581Z,10.15
2023-03-26T20:31:25.138Z,10.27
2023-03-26T20:33:54.180Z,10.45
2023-03-26T20:36:33.704Z,10.73
2023-03-26T20:39:05.989Z,12.43
2023-03-26T20:41:35.989Z,11.63
2023-03-26T20:44:05.024Z,12.38
2023-03-26T20:46:33.766Z,11.90
2023-03-26T20:49:01.389Z,12.32
2023-03-26T20:51:29.161Z,12.70
2023-03-26T20:53:56.852Z,12.88
2023-03-26T20:56:24.454Z,13.50
2023-03-26T20:59:09.815Z,13.20
2023-03-26T21:01:39.030Z,14.20
2023-03-26T21:04:07.049Z,14.35
2023-03-26T21:06:34.813Z,14.20
2023-03-26T21:09:02.443Z,15.10
2023-03-26T21:11:46.860Z,15.20
2023-03-26T21:14:29.543Z,15.60
2023-03-26T21:16:57.353Z,16.95
2023-03-26T21:19:25.301Z,18.67
2023-03-26T21:22:05.189Z,19.13
2023-03-26T21:24:57.139Z,19.27
2023-03-26T21:27:55.505Z,20.27
2023-03-26T21:30:23.726Z,19.90
2023-03-26T21:32:51.485Z,19.40
2023-03-26T21:35:19.602Z,18.85
2023-03-26T21:37:48.862Z,18.73
2023-03-26T21:40:18.016Z,19.65
2023-03-26T21:42:51.203Z,19.55
2023-03-26T21:45:19.905Z,19.95
2023-03-26T21:47:48.363Z,18.60
2023-03-26T21:50:21.980Z,18.50
2023-03-26T21:52:51.007Z,19.55
2023-03-26T21:55:21.175Z,19.25
2023-03-26T21:58:12.730Z,18.08
2023-03-26T22:01:02.769Z,17.90
2023-03-26T22:03:51.871Z,17.33
2023-03-26T22:06:42.963Z,18.27
2023-03-26T22:09:12.276Z,17.67
2023-03-26T22:11:44.350Z,17.20
2023-03-26T22:14:13.360Z,18.02
2023-03-26T22:16:41.725Z,18.27
2023-03-26T22:19:09.240Z,19.27
2023-03-26T22:21:36.683Z,20.13
2023-03-26T22:24:04.279Z,20.50
2023-03-26T22:26:31.965Z,20.33
2023-03-26T22:28:59.432Z,19.98
2023-03-26T22:31:27.202Z,20.98
2023-03-26T22:33:55.254Z,20.70
2023-03-26T22:36:23.839Z,21.02
2023-03-26T22:38:55.195Z,21.65
2023-03-26T22:41:23.266Z,21.30
2023-03-26T22:43:54.646Z,20.63
2023-03-26T22:46:22.782Z,15.93
2023-03-26T22:48:51.136Z,22.88
2023-03-26T22:51:19.130Z,22.48
2023-03-26T22:53:46.643Z,22.13
2023-03-26T22:56:15.344Z,22.00
2023-03-26T22:58:42.772Z,22.50
2023-03-26T23:01:14.550Z,21.63
2023-03-26T23:03:43.036Z,20.90
2023-03-26T23:06:12.098Z,22.30
2023-03-26T23:08:40.551Z,22.45
2023-03-26T23:11:17.194Z,20.98
2023-03-26T23:13:45.984Z,20.55
2023-03-26T23:16:14.270Z,20.40
2023-03-26T23:18:42.013Z,19.95
2023-03-26T23:21:18.448Z,19.80
2023-03-26T23:23:47.129Z,18.95
2023-03-26T23:26:15.431Z,18.95
2023-03-26T23:28:43.306Z,19.65
2023-03-26T23:31:12.478Z,18.13
2023-03-26T23:33:46.032Z,18.38
2023-03-26T23:36:18.521Z,19.85
2023-03-26T23:38:48.230Z,17.60
2023-03-26T23:41:21.720Z,17.90
2023-03-26T23:43:56.477Z,18.63
2023-03-26T23:46:30.171Z,17.42
2023-03-26T23:49:03.781Z,19.27
2023-03-26T23:51:32.222Z,17.17
2023-03-26T23:54:01.376Z,17.85
2023-03-26T23:56:32.676Z,19.60
2023-03-26T23:59:00.740Z,19.55
